Accueil
METAR-TAF:

METAR-TAF

Aéroports :

Aéroport international de Rabat-Salé

Rabat, Maroc

latitude: 34-03N, longitude: 006-46W, altitude: 84 m

Observation

Le bulletin a été fait il y a 17 minutes, à 18:00 UTC
Vent 8 kt de nord/nord-est
Température 21°C
Humidité 73%
Pression 1017 hPa
Visibilité 10 km ou plus
pas de nuages en-dessous de 1500 mètres et pas de cumulonimbus.

METAR: GMME 221800Z 02008KT CAVOK 21/16 Q1017 NOSIG

Heure: 19:17 (18:17 UTC)

Prévision

Le bulletin a été fait il y a 1 heure et 17 minutes, à 17:00 UTC
Prévision valable du 22 à 18 UTC au 23 à 24 UTC
Vent 8 kt de nord/nord-ouest
Visibilité: 8000 m
Probabilité 30% :
Temporairement
du 23 à 00 UTC au 23 à 09 UTC
Nuages épars à une hauteur de 1300 ft
Nuages fragmentés à une hauteur de 9000 ft

TAF: GMME 221700Z 2218/2324 34008KT 8000 NSC PROB30 TEMPO 2300/2309 SCT013 BKN090

Observations et prévisions météorologiques de plus de 4000 aéroports (messages METAR et TAF).

Les stations disponibles sont représentées par des disques jaunes et rouges sur la carte.

Passer la souris dessus pour voir le nom de la station.

Cliquer dessus pour voir les observations et prévisions météorologiques.

Pour changer de carte: cliquez sur les boutons verts avec une croix noire pour zoomer, sur le bouton vert avec un tiret pour effectuer un zoom arrière, ou sur les flèches vertes pour les cartes adjacentes.


METAR-TAF: